createdAt,value
2022-11-29T00:01:31.546Z,98.50
2022-11-29T00:04:09.389Z,98.66
2022-11-29T00:06:38.055Z,98.70
2022-11-29T00:09:08.699Z,98.70
2022-11-29T00:11:55.375Z,98.74
2022-11-29T00:14:23.075Z,98.73
2022-11-29T00:16:51.833Z,98.68
2022-11-29T00:19:20.080Z,98.69
2022-11-29T00:21:46.600Z,98.55
2022-11-29T00:24:13.606Z,98.46
2022-11-29T00:26:40.266Z,98.22
2022-11-29T00:29:06.722Z,98.27
2022-11-29T00:31:33.716Z,98.05
2022-11-29T00:34:02.826Z,97.99
2022-11-29T00:36:31.232Z,97.95
2022-11-29T00:38:57.938Z,98.22
2022-11-29T00:41:24.556Z,98.44
2022-11-29T00:43:51.065Z,98.72
2022-11-29T00:46:17.693Z,98.85
2022-11-29T00:48:44.218Z,98.88
2022-11-29T00:51:11.002Z,98.71
2022-11-29T00:53:37.859Z,98.65
2022-11-29T00:56:06.782Z,98.62
2022-11-29T01:01:41.154Z,98.45
2022-11-29T01:04:08.481Z,98.52
2022-11-29T01:06:35.850Z,98.60
2022-11-29T01:09:02.391Z,98.76
2022-11-29T01:11:29.717Z,98.76
2022-11-29T01:13:59.966Z,98.71
2022-11-29T01:16:31.899Z,98.68
2022-11-29T01:19:00.561Z,98.77
2022-11-29T01:21:27.199Z,98.78
2022-11-29T01:23:54.630Z,98.65
2022-11-29T01:26:24.726Z,98.50
2022-11-29T01:28:53.288Z,98.28
2022-11-29T01:31:26.479Z,98.14
2022-11-29T01:33:54.961Z,98.23
2022-11-29T01:36:21.601Z,98.22
2022-11-29T01:38:48.159Z,98.18
2022-11-29T01:41:19.578Z,98.14
2022-11-29T01:44:04.201Z,98.18
2022-11-29T01:46:36.644Z,98.14
2022-11-29T01:49:15.023Z,98.04
2022-11-29T01:51:55.896Z,98.03
2022-11-29T01:54:22.909Z,97.96
2022-11-29T01:56:51.428Z,97.94
2022-11-29T01:59:22.247Z,98.08
2022-11-29T02:01:49.017Z,98.01
2022-11-29T02:04:16.157Z,98.08
2022-11-29T02:06:44.394Z,98.12
2022-11-29T02:09:22.435Z,98.12
2022-11-29T02:12:10.460Z,97.99
2022-11-29T02:14:59.110Z,97.98
2022-11-29T02:17:47.780Z,98.00
2022-11-29T02:20:33.467Z,98.05
2022-11-29T02:23:26.398Z,98.19
2022-11-29T02:29:20.444Z,98.09
2022-11-29T02:31:56.791Z,98.10
2022-11-29T02:34:58.924Z,97.96
2022-11-29T02:37:49.862Z,97.86
2022-11-29T02:40:16.310Z,98.04
2022-11-29T02:43:10.303Z,98.07
2022-11-29T02:46:00.928Z,97.91
2022-11-29T02:48:33.588Z,97.96
2022-11-29T02:51:11.430Z,97.92
2022-11-29T02:53:41.302Z,97.97
2022-11-29T02:56:13.072Z,97.95
2022-11-29T02:58:45.552Z,97.67
2022-11-29T03:01:25.890Z,97.79
2022-11-29T03:04:21.918Z,97.47
2022-11-29T03:07:07.429Z,97.34
2022-11-29T03:09:49.233Z,97.27
2022-11-29T03:12:23.406Z,97.41
2022-11-29T03:15:44.237Z,97.58
2022-11-29T03:18:28.379Z,97.82
2022-11-29T03:21:16.605Z,97.78
2022-11-29T03:24:09.266Z,97.76
2022-11-29T03:26:52.096Z,97.88
2022-11-29T03:29:21.168Z,97.91
2022-11-29T03:32:09.703Z,97.97
2022-11-29T03:34:57.807Z,97.93
2022-11-29T03:37:45.594Z,97.73
2022-11-29T03:40:17.059Z,97.82
2022-11-29T03:43:06.241Z,98.04
2022-11-29T03:45:59.680Z,98.17
2022-11-29T03:48:42.710Z,98.19
2022-11-29T03:51:18.077Z,98.29
2022-11-29T03:54:23.567Z,98.28
2022-11-29T03:56:51.912Z,98.33
2022-11-29T03:59:30.771Z,98.41
2022-11-29T04:02:29.619Z,98.48
2022-11-29T04:05:19.210Z,98.45
2022-11-29T04:08:27.051Z,98.51
2022-11-29T04:11:16.684Z,98.57
2022-11-29T04:14:02.363Z,98.53
2022-11-29T04:17:06.723Z,98.46
2022-11-29T04:19:51.960Z,98.53
2022-11-29T04:22:37.362Z,98.64
2022-11-29T04:25:12.209Z,98.72
2022-11-29T04:27:57.550Z,98.66
2022-11-29T04:30:25.960Z,98.69
2022-11-29T04:32:55.675Z,98.74
2022-11-29T04:35:43.248Z,98.87
2022-11-29T04:38:28.791Z,98.83
2022-11-29T04:41:21.245Z,98.72
2022-11-29T04:44:19.700Z,98.76
2022-11-29T04:47:18.203Z,98.87
2022-11-29T04:50:06.830Z,98.94
2022-11-29T04:52:52.511Z,99.04
2022-11-29T04:55:44.052Z,98.97
2022-11-29T04:58:38.492Z,98.95
2022-11-29T05:01:14.820Z,98.97
2022-11-29T05:04:14.385Z,99.04
2022-11-29T05:06:53.168Z,99.00
2022-11-29T05:09:34.918Z,98.92
2022-11-29T05:12:40.060Z,98.95
2022-11-29T05:15:49.943Z,99.01
2022-11-29T05:18:25.557Z,99.03
2022-11-29T05:21:18.829Z,99.07
2022-11-29T05:24:16.535Z,99.20
2022-11-29T05:26:49.650Z,99.24
2022-11-29T05:29:26.431Z,99.39
2022-11-29T05:32:12.240Z,99.47
2022-11-29T05:34:55.223Z,99.49
2022-11-29T05:37:45.488Z,99.49
2022-11-29T05:41:03.575Z,99.58
2022-11-29T05:43:30.619Z,99.54
2022-11-29T06:02:11.081Z,99.72
2022-11-29T06:05:04.142Z,99.80
2022-11-29T06:10:23.569Z,99.75
2022-11-29T06:13:00.387Z,99.63
2022-11-29T06:15:46.172Z,99.59
2022-11-29T06:18:37.399Z,99.61
2022-11-29T06:21:16.979Z,99.58
2022-11-29T06:24:11.156Z,99.61
2022-11-29T06:26:52.286Z,99.55
2022-11-29T06:29:22.576Z,99.45
2022-11-29T06:32:15.543Z,99.39
2022-11-29T06:35:03.070Z,99.39
2022-11-29T06:37:38.974Z,99.38
2022-11-29T06:40:10.916Z,99.47
2022-11-29T06:42:37.783Z,99.50
2022-11-29T06:45:07.633Z,99.42
2022-11-29T06:47:40.391Z,99.36
2022-11-29T06:50:13.269Z,99.21
2022-11-29T06:53:13.782Z,99.04
2022-11-29T06:56:00.655Z,98.88
2022-11-29T06:58:36.065Z,98.86
2022-11-29T07:01:31.968Z,98.77
2022-11-29T07:04:32.618Z,98.64
2022-11-29T07:07:00.669Z,98.70
2022-11-29T07:09:33.613Z,98.55
2022-11-29T07:12:00.739Z,98.65
2022-11-29T07:14:27.531Z,98.59
2022-11-29T07:17:05.335Z,98.53
2022-11-29T07:19:50.106Z,98.38
2022-11-29T07:22:53.098Z,98.38
2022-11-29T07:25:37.923Z,98.49
2022-11-29T07:28:22.408Z,98.48
2022-11-29T07:33:51.096Z,98.49
2022-11-29T07:36:17.432Z,98.56
2022-11-29T07:39:19.873Z,98.46
2022-11-29T07:42:14.877Z,98.31
2022-11-29T07:44:53.791Z,98.24
2022-11-29T07:47:20.249Z,98.17
2022-11-29T07:49:46.745Z,98.11
2022-11-29T07:52:16.174Z,98.22
2022-11-29T07:54:43.539Z,98.23
2022-11-29T07:57:10.319Z,98.24
2022-11-29T07:59:36.890Z,98.25
2022-11-29T08:02:08.780Z,98.29
2022-11-29T08:04:44.592Z,98.27
2022-11-29T08:07:11.405Z,98.20
2022-11-29T08:09:37.920Z,98.18
2022-11-29T08:12:04.879Z,98.12
2022-11-29T08:14:33.356Z,97.74
2022-11-29T08:16:59.854Z,97.78
2022-11-29T08:19:26.345Z,97.87
2022-11-29T08:21:53.371Z,97.86
2022-11-29T08:24:19.967Z,97.71
2022-11-29T08:26:46.884Z,97.61
2022-11-29T08:29:13.361Z,97.57
2022-11-29T08:31:39.904Z,97.54
2022-11-29T08:34:07.332Z,97.51
2022-11-29T08:36:33.926Z,97.47
2022-11-29T08:39:08.975Z,97.26
2022-11-29T08:41:37.546Z,97.30
2022-11-29T08:44:06.847Z,97.31
2022-11-29T08:46:51.979Z,97.31
2022-11-29T08:49:18.675Z,97.46
2022-11-29T08:51:45.162Z,97.44
2022-11-29T08:54:11.663Z,97.24
2022-11-29T08:59:24.646Z,97.17
2022-11-29T09:01:51.313Z,96.85
2022-11-29T09:04:17.868Z,96.83
2022-11-29T09:06:44.604Z,96.60
2022-11-29T09:09:11.040Z,96.57
2022-11-29T09:11:37.582Z,96.70
2022-11-29T09:14:06.708Z,96.03
2022-11-29T09:16:36.029Z,96.02
2022-11-29T09:19:04.007Z,95.77
2022-11-29T09:21:31.343Z,95.98
2022-11-29T09:24:02.393Z,96.13
2022-11-29T09:26:31.847Z,96.11
2022-11-29T09:29:01.305Z,95.82
2022-11-29T09:31:29.561Z,95.64
2022-11-29T09:33:56.914Z,95.69
2022-11-29T09:36:28.144Z,95.45
2022-11-29T09:38:55.455Z,95.13
2022-11-29T09:41:34.977Z,95.17
2022-11-29T09:44:26.289Z,94.99
2022-11-29T09:47:18.042Z,94.99
2022-11-29T09:49:59.861Z,94.68
2022-11-29T09:52:38.480Z,94.56
2022-11-29T09:55:32.992Z,94.16
2022-11-29T09:58:01.558Z,94.24
2022-11-29T10:00:28.775Z,94.22
2022-11-29T10:03:02.415Z,94.04
2022-11-29T10:05:47.443Z,94.30
2022-11-29T10:08:36.796Z,94.39
2022-11-29T10:11:29.443Z,93.74
2022-11-29T10:14:15.335Z,93.78
2022-11-29T10:16:46.945Z,93.81
2022-11-29T10:19:33.342Z,93.33
2022-11-29T10:22:28.087Z,93.50
2022-11-29T10:24:58.743Z,93.51
2022-11-29T10:27:29.497Z,93.86
2022-11-29T10:29:57.341Z,94.26
2022-11-29T10:32:25.724Z,94.32
2022-11-29T10:34:52.178Z,94.65
2022-11-29T10:37:23.371Z,94.29
2022-11-29T10:39:54.225Z,94.70
2022-11-29T10:42:43.131Z,94.47
2022-11-29T10:45:37.557Z,94.50
2022-11-29T10:48:10.947Z,94.58
2022-11-29T10:50:37.663Z,94.76
2022-11-29T10:53:19.733Z,94.99
2022-11-29T10:56:03.157Z,95.05
2022-11-29T10:58:31.062Z,94.60
2022-11-29T11:01:01.031Z,94.07
2022-11-29T11:03:43.239Z,94.22
2022-11-29T11:06:19.184Z,93.68
2022-11-29T11:08:52.682Z,93.82
2022-11-29T11:11:30.882Z,93.35
2022-11-29T11:14:03.291Z,93.51
2022-11-29T11:16:34.286Z,93.80
2022-11-29T11:19:33.543Z,93.89
2022-11-29T11:22:04.597Z,93.99
2022-11-29T11:24:40.964Z,93.90
2022-11-29T11:27:07.831Z,93.55
2022-11-29T11:29:40.973Z,93.09
2022-11-29T11:32:27.800Z,93.31
2022-11-29T11:34:58.049Z,93.22
2022-11-29T11:37:29.851Z,93.24
2022-11-29T11:40:18.900Z,93.87
2022-11-29T11:42:45.688Z,93.42
2022-11-29T11:45:12.581Z,93.72
2022-11-29T11:47:44.956Z,93.79
2022-11-29T11:50:27.634Z,93.87
2022-11-29T11:52:59.733Z,94.03
2022-11-29T11:55:37.024Z,93.67
2022-11-29T11:58:16.186Z,93.48
2022-11-29T12:01:06.746Z,93.43
2022-11-29T12:03:50.869Z,93.63
2022-11-29T12:06:28.797Z,93.50
2022-11-29T12:09:25.273Z,93.42
2022-11-29T12:12:13.584Z,93.01
2022-11-29T12:15:02.548Z,92.73
2022-11-29T12:17:31.735Z,92.81
2022-11-29T12:20:07.215Z,93.28
2022-11-29T12:22:50.761Z,92.90
2022-11-29T12:25:22.699Z,93.05
2022-11-29T12:27:50.750Z,93.02
2022-11-29T12:30:19.218Z,93.41
2022-11-29T12:33:06.119Z,93.34
2022-11-29T12:35:44.609Z,93.18
2022-11-29T12:38:43.939Z,93.38
2022-11-29T12:41:33.662Z,93.09
2022-11-29T12:44:29.586Z,93.35
2022-11-29T12:47:34.666Z,92.97
2022-11-29T12:50:24.376Z,93.38
2022-11-29T12:53:11.206Z,93.30
2022-11-29T12:56:04.166Z,93.29
2022-11-29T12:58:45.458Z,93.52
2022-11-29T13:01:41.028Z,93.41
2022-11-29T13:04:13.373Z,93.19
2022-11-29T13:07:24.240Z,93.10
2022-11-29T13:10:03.337Z,93.46
2022-11-29T13:12:50.756Z,92.97
2022-11-29T13:15:23.805Z,92.90
2022-11-29T13:18:01.097Z,92.72
2022-11-29T13:20:34.357Z,93.62
2022-11-29T13:23:39.158Z,93.69
2022-11-29T13:26:12.214Z,93.71
2022-11-29T13:28:41.276Z,93.86
2022-11-29T13:31:28.215Z,93.55
2022-11-29T13:34:16.522Z,93.64
2022-11-29T13:37:01.997Z,93.93
2022-11-29T13:39:52.394Z,93.62
2022-11-29T13:42:45.306Z,93.74
2022-11-29T13:45:37.547Z,93.75
2022-11-29T13:48:27.822Z,93.82
2022-11-29T13:50:56.645Z,93.96
2022-11-29T13:53:48.184Z,94.00
2022-11-29T13:56:42.626Z,93.92
2022-11-29T13:59:27.711Z,93.83
2022-11-29T14:01:54.450Z,93.89
2022-11-29T14:04:31.337Z,93.84
2022-11-29T14:07:08.831Z,93.85
2022-11-29T14:09:35.275Z,93.57
2022-11-29T14:12:17.147Z,93.76
2022-11-29T14:15:04.315Z,94.06
2022-11-29T14:17:49.501Z,94.07
2022-11-29T14:20:25.322Z,94.12
2022-11-29T14:23:04.407Z,93.99
2022-11-29T14:25:51.212Z,94.00
2022-11-29T14:28:18.544Z,93.95
2022-11-29T14:30:46.457Z,94.27
2022-11-29T14:33:12.833Z,94.33
2022-11-29T14:35:50.925Z,94.32
2022-11-29T14:38:31.131Z,94.21
2022-11-29T14:41:12.503Z,94.21
2022-11-29T14:43:41.682Z,94.55
2022-11-29T14:46:14.203Z,94.45
2022-11-29T14:49:02.756Z,94.59
2022-11-29T14:51:31.471Z,94.35
2022-11-29T14:54:16.395Z,94.62
2022-11-29T14:56:45.038Z,94.51
2022-11-29T14:59:49.400Z,94.34
2022-11-29T15:02:38.633Z,94.55
2022-11-29T15:05:24.508Z,94.63
2022-11-29T15:08:16.389Z,94.65
2022-11-29T15:10:55.831Z,94.32
2022-11-29T15:13:33.430Z,94.64
2022-11-29T15:16:12.951Z,94.58
2022-11-29T15:19:14.306Z,94.68
2022-11-29T15:22:03.754Z,94.91
2022-11-29T15:24:30.391Z,94.98
2022-11-29T15:26:59.866Z,95.16
2022-11-29T15:29:27.791Z,95.03
2022-11-29T15:31:55.499Z,95.21
2022-11-29T15:34:31.515Z,95.20
2022-11-29T15:36:59.674Z,95.37
2022-11-29T15:39:34.814Z,95.36
2022-11-29T15:42:12.430Z,95.40
2022-11-29T15:44:46.106Z,95.42
2022-11-29T15:47:24.401Z,95.45
2022-11-29T15:49:52.466Z,95.44
2022-11-29T15:52:39.296Z,95.33
2022-11-29T15:55:10.658Z,94.94
2022-11-29T15:57:44.899Z,95.19
2022-11-29T16:00:20.386Z,95.23
2022-11-29T16:02:51.839Z,95.26
2022-11-29T16:05:25.463Z,95.21
2022-11-29T16:07:56.473Z,95.13
2022-11-29T16:10:31.933Z,95.37
2022-11-29T16:13:27.015Z,95.44
2022-11-29T16:16:15.573Z,95.62
2022-11-29T16:18:44.827Z,95.73
2022-11-29T16:21:24.930Z,95.43
2022-11-29T16:23:51.767Z,95.58
2022-11-29T16:26:30.070Z,95.64
2022-11-29T16:28:59.682Z,95.62
2022-11-29T16:31:37.940Z,95.75
2022-11-29T16:34:10.564Z,95.76
2022-11-29T16:36:37.165Z,95.86
2022-11-29T16:39:24.288Z,96.03
2022-11-29T16:42:19.402Z,96.06
2022-11-29T16:44:52.999Z,96.15
2022-11-29T16:47:25.326Z,95.83
2022-11-29T16:50:15.410Z,95.82
2022-11-29T16:52:42.396Z,96.04
2022-11-29T16:55:09.001Z,96.29
2022-11-29T16:57:35.895Z,96.50
2022-11-29T17:00:09.434Z,96.55
2022-11-29T17:02:36.058Z,96.45
2022-11-29T17:05:02.692Z,96.29
2022-11-29T17:07:33.298Z,96.23
2022-11-29T17:10:00.032Z,96.21
2022-11-29T17:12:26.533Z,96.36
2022-11-29T17:14:53.105Z,96.51
2022-11-29T17:17:19.945Z,96.64
2022-11-29T17:19:46.611Z,96.77
2022-11-29T17:22:13.185Z,96.75
2022-11-29T17:24:46.246Z,96.98
2022-11-29T17:27:14.660Z,96.97
2022-11-29T17:29:41.189Z,97.04
2022-11-29T17:32:07.709Z,97.38
2022-11-29T17:34:34.719Z,97.42
2022-11-29T17:37:01.425Z,97.53
2022-11-29T17:39:27.911Z,97.58
2022-11-29T17:41:54.626Z,97.66
2022-11-29T17:44:21.192Z,97.81
2022-11-29T17:46:47.772Z,97.90
2022-11-29T17:49:14.565Z,97.95
2022-11-29T17:51:56.684Z,97.94
2022-11-29T17:54:23.242Z,97.89
2022-11-29T17:56:50.594Z,97.94
2022-11-29T17:59:17.261Z,97.96
2022-11-29T18:01:44.723Z,98.01
2022-11-29T18:04:11.440Z,98.06
2022-11-29T18:06:40.164Z,98.00
2022-11-29T18:09:08.958Z,98.08
2022-11-29T18:11:48.136Z,98.17
2022-11-29T18:14:19.193Z,98.30
2022-11-29T18:16:45.992Z,98.34
2022-11-29T18:19:15.105Z,98.25
2022-11-29T18:21:41.761Z,98.30
2022-11-29T18:24:09.070Z,98.32
2022-11-29T18:26:37.046Z,98.20
2022-11-29T18:29:03.674Z,98.18
2022-11-29T18:31:33.671Z,98.15
2022-11-29T18:34:02.481Z,98.19
2022-11-29T18:36:32.034Z,98.02
2022-11-29T18:39:05.523Z,98.08
2022-11-29T18:41:32.308Z,98.12
2022-11-29T18:44:01.761Z,98.27
2022-11-29T18:46:32.477Z,98.29
2022-11-29T18:49:01.075Z,98.23
2022-11-29T18:51:29.336Z,98.22
2022-11-29T18:53:57.216Z,98.36
2022-11-29T18:58:42.075Z,98.47
2022-11-29T19:01:13.670Z,98.55
2022-11-29T19:03:42.588Z,98.55
2022-11-29T19:06:11.875Z,98.50
2022-11-29T19:08:38.692Z,98.59
2022-11-29T19:11:07.048Z,98.44
2022-11-29T19:13:34.165Z,98.38
2022-11-29T19:16:01.688Z,98.32
2022-11-29T19:18:29.118Z,98.18
2022-11-29T19:21:08.877Z,98.17
2022-11-29T19:23:35.446Z,98.22
2022-11-29T19:26:12.945Z,98.27
2022-11-29T19:28:42.549Z,98.34
2022-11-29T19:31:10.642Z,98.30
2022-11-29T19:33:39.308Z,98.33
2022-11-29T19:36:13.468Z,98.28
2022-11-29T19:38:40.678Z,98.19
2022-11-29T19:41:11.772Z,98.17
2022-11-29T19:43:38.841Z,98.19
2022-11-29T19:46:33.383Z,97.96
2022-11-29T19:57:02.692Z,97.35
2022-11-29T19:59:29.438Z,97.24
2022-11-29T20:01:55.969Z,97.06
2022-11-29T20:17:45.860Z,97.11
2022-11-29T20:36:54.566Z,97.03
2022-11-29T20:39:21.489Z,96.97
2022-11-29T20:41:53.862Z,96.82
2022-11-29T20:44:24.299Z,96.77
2022-11-29T20:46:50.956Z,96.66
2022-11-29T20:49:25.556Z,96.75
2022-11-29T20:52:03.028Z,96.63
2022-11-29T20:57:09.921Z,96.41
2022-11-29T21:02:16.754Z,96.33
2022-11-29T21:04:43.369Z,96.41
2022-11-29T21:07:09.901Z,96.29
2022-11-29T21:09:36.367Z,96.15
2022-11-29T21:12:03.173Z,96.33
2022-11-29T21:14:29.973Z,96.33
2022-11-29T21:16:56.751Z,96.41
2022-11-29T21:19:25.928Z,96.67
2022-11-29T21:22:04.970Z,96.31
2022-11-29T21:24:31.389Z,96.13
2022-11-29T21:26:57.995Z,96.52
2022-11-29T21:29:24.722Z,96.77
2022-11-29T21:31:53.754Z,96.92
2022-11-29T21:34:20.897Z,97.17
2022-11-29T21:36:58.809Z,97.36
2022-11-29T21:39:34.845Z,97.39
2022-11-29T21:42:02.799Z,97.49
2022-11-29T21:44:30.371Z,97.64
2022-11-29T21:46:58.302Z,97.68
2022-11-29T21:49:25.191Z,97.74
2022-11-29T21:51:57.589Z,97.90
2022-11-29T21:54:24.073Z,98.11
2022-11-29T21:56:50.579Z,98.02
2022-11-29T21:59:17.230Z,98.06
2022-11-29T22:01:43.959Z,98.03
2022-11-29T22:04:10.709Z,97.96
2022-11-29T22:06:37.316Z,97.91
2022-11-29T22:09:04.892Z,98.07
2022-11-29T22:11:34.147Z,98.15
2022-11-29T22:14:23.669Z,98.17
2022-11-29T22:16:59.864Z,98.17
2022-11-29T22:19:50.718Z,98.21
2022-11-29T22:22:17.463Z,98.25
2022-11-29T22:24:48.080Z,98.28
2022-11-29T22:27:20.235Z,98.29
2022-11-29T22:29:47.186Z,98.10
2022-11-29T22:32:13.844Z,97.95
2022-11-29T22:34:40.416Z,97.97
2022-11-29T22:37:17.576Z,98.19
2022-11-29T22:42:25.380Z,98.20
2022-11-29T22:47:33.627Z,98.33
2022-11-29T22:50:00.903Z,98.18
2022-11-29T22:52:27.590Z,98.16
2022-11-29T22:55:04.232Z,98.14
2022-11-29T22:57:34.720Z,98.21
2022-11-29T23:00:01.842Z,98.33
2022-11-29T23:02:31.729Z,98.24
2022-11-29T23:05:04.023Z,98.29
2022-11-29T23:07:31.576Z,98.34
2022-11-29T23:10:04.728Z,98.35
2022-11-29T23:12:33.409Z,98.11
2022-11-29T23:15:05.109Z,97.99
2022-11-29T23:17:31.794Z,97.92
2022-11-29T23:20:08.400Z,97.83
2022-11-29T23:22:39.292Z,97.85
2022-11-29T23:25:09.889Z,97.74
2022-11-29T23:27:36.351Z,97.71
2022-11-29T23:30:04.381Z,97.52
2022-11-29T23:32:30.898Z,97.46
2022-11-29T23:34:58.523Z,97.32
2022-11-29T23:37:26.044Z,97.21
2022-11-29T23:39:52.535Z,97.38
2022-11-29T23:42:19.037Z,97.20
2022-11-29T23:44:45.720Z,97.05
2022-11-29T23:47:12.702Z,97.25
2022-11-29T23:49:39.929Z,97.24
2022-11-29T23:52:06.466Z,97.22
2022-11-29T23:54:32.923Z,97.35
2022-11-29T23:56:59.454Z,97.51
2022-11-29T23:59:27.201Z,97.51
